createdAt,value
2022-08-17T00:00:01.608Z,27.83
2022-08-17T00:02:56.326Z,31.55
2022-08-17T00:05:24.243Z,27.13
2022-08-17T00:07:51.760Z,27.23
2022-08-17T00:10:19.451Z,25.83
2022-08-17T00:12:47.121Z,26.05
2022-08-17T00:15:15.706Z,26.55
2022-08-17T00:17:43.394Z,24.95
2022-08-17T00:20:12.056Z,24.95
2022-08-17T00:22:39.613Z,25.48
2022-08-17T00:25:12.072Z,25.17
2022-08-17T00:27:40.051Z,22.35
2022-08-17T00:30:10.416Z,21.73
2022-08-17T00:33:14.381Z,21.90
2022-08-17T00:35:28.225Z,21.58
2022-08-17T00:37:55.682Z,22.48
2022-08-17T00:40:24.767Z,24.17
2022-08-17T00:42:53.506Z,25.55
2022-08-17T00:45:23.302Z,23.75
2022-08-17T00:47:50.746Z,22.48
2022-08-17T00:50:19.936Z,21.90
2022-08-17T00:52:54.991Z,20.63
2022-08-17T00:55:25.733Z,23.10
2022-08-17T00:57:58.482Z,24.33
2022-08-17T01:00:40.470Z,20.83
2022-08-17T01:03:12.935Z,22.80
2022-08-17T01:05:42.312Z,22.02
2022-08-17T01:08:13.990Z,20.95
2022-08-17T01:10:59.457Z,21.45
2022-08-17T01:13:41.225Z,20.05
2022-08-17T01:16:22.054Z,20.75
2022-08-17T01:18:53.119Z,19.90
2022-08-17T01:21:41.249Z,18.83
2022-08-17T01:24:08.810Z,20.92
2022-08-17T01:26:39.941Z,19.30
2022-08-17T01:29:08.067Z,20.08
2022-08-17T01:31:39.052Z,19.23
2022-08-17T01:34:09.952Z,18.45
2022-08-17T01:36:39.525Z,20.02
2022-08-17T01:39:16.151Z,20.00
2022-08-17T01:41:46.157Z,24.13
2022-08-17T01:44:16.582Z,21.05
2022-08-17T01:46:43.944Z,21.83
2022-08-17T01:49:12.951Z,23.92
2022-08-17T01:51:40.402Z,25.45
2022-08-17T01:54:12.642Z,28.73
2022-08-17T01:56:47.236Z,25.63
2022-08-17T01:59:16.932Z,28.23
2022-08-17T02:01:45.388Z,29.42
2022-08-17T02:04:13.326Z,27.13
2022-08-17T02:06:45.383Z,30.40
2022-08-17T02:09:29.807Z,26.73
2022-08-17T02:11:59.745Z,25.15
2022-08-17T02:14:47.113Z,27.65
2022-08-17T02:17:14.527Z,23.15
2022-08-17T02:19:41.965Z,23.48
2022-08-17T02:22:10.137Z,25.73
2022-08-17T02:25:01.074Z,20.90
2022-08-17T02:27:26.581Z,22.08
2022-08-17T02:29:53.990Z,15.93
2022-08-17T02:32:27.916Z,16.40
2022-08-17T02:34:59.674Z,17.77
2022-08-17T02:37:28.661Z,20.27
2022-08-17T02:39:59.515Z,20.13
2022-08-17T02:42:33.934Z,21.85
2022-08-17T02:47:29.975Z,21.23
2022-08-17T02:49:57.835Z,21.40
2022-08-17T02:52:43.867Z,21.52
2022-08-17T02:55:24.156Z,19.60
2022-08-17T02:57:52.302Z,19.23
2022-08-17T03:00:28.823Z,22.45
2022-08-17T03:02:57.839Z,22.35
2022-08-17T03:05:28.036Z,19.80
2022-08-17T03:07:56.312Z,17.17
2022-08-17T03:10:24.715Z,18.77
2022-08-17T03:12:54.530Z,20.52
2022-08-17T03:15:26.083Z,19.00
2022-08-17T03:17:54.638Z,21.20
2022-08-17T03:20:22.427Z,21.83
2022-08-17T03:22:55.482Z,21.58
2022-08-17T03:25:38.640Z,20.42
2022-08-17T03:28:06.206Z,24.00
2022-08-17T03:30:34.321Z,22.58
2022-08-17T03:33:05.499Z,25.83
2022-08-17T03:35:36.360Z,27.65
2022-08-17T03:38:04.798Z,27.38
2022-08-17T03:40:41.798Z,28.60
2022-08-17T03:43:21.682Z,31.20
2022-08-17T03:46:10.993Z,30.83
2022-08-17T03:49:13.698Z,34.30
2022-08-17T03:52:06.964Z,38.38
2022-08-17T03:54:52.668Z,36.67
2022-08-17T03:57:20.380Z,36.33
2022-08-17T03:59:48.229Z,36.75
2022-08-17T04:02:21.775Z,32.40
2022-08-17T04:04:51.025Z,36.08
2022-08-17T04:07:24.120Z,35.38
2022-08-17T04:09:51.627Z,34.22
2022-08-17T04:12:21.476Z,33.42
2022-08-17T04:14:52.793Z,34.60
2022-08-17T04:17:24.453Z,33.13
2022-08-17T04:19:52.322Z,31.83
2022-08-17T04:22:33.378Z,39.42
2022-08-17T04:25:16.802Z,33.80
2022-08-17T04:27:44.216Z,28.67
2022-08-17T04:30:12.234Z,30.65
2022-08-17T04:33:08.792Z,29.85
2022-08-17T04:35:40.205Z,24.52
2022-08-17T04:38:12.032Z,27.30
2022-08-17T04:40:57.991Z,26.38
2022-08-17T04:43:27.494Z,28.67
2022-08-17T04:46:01.312Z,25.40
2022-08-17T04:48:42.659Z,28.98
2022-08-17T04:51:12.123Z,30.58
2022-08-17T04:53:41.448Z,30.75
2022-08-17T04:56:16.192Z,30.92
2022-08-17T04:58:48.205Z,28.50
2022-08-17T05:01:23.818Z,34.05
2022-08-17T05:03:54.148Z,32.17
2022-08-17T05:06:22.420Z,30.25
2022-08-17T05:08:49.800Z,30.70
2022-08-17T05:11:17.921Z,33.22
2022-08-17T05:13:45.732Z,29.42
2022-08-17T05:16:13.163Z,29.70
2022-08-17T05:18:40.557Z,33.05
2022-08-17T05:21:08.161Z,28.35
2022-08-17T05:23:42.534Z,26.15
2022-08-17T05:26:25.573Z,26.02
2022-08-17T05:29:00.624Z,23.95
2022-08-17T05:31:30.855Z,23.30
2022-08-17T05:33:58.732Z,29.48
2022-08-17T05:36:43.515Z,22.42
2022-08-17T05:39:15.825Z,21.05
2022-08-17T05:41:46.965Z,21.75
2022-08-17T05:44:15.270Z,20.83
2022-08-17T05:46:47.909Z,20.70
2022-08-17T05:49:18.967Z,19.20
2022-08-17T05:52:00.413Z,18.77
2022-08-17T05:54:33.517Z,20.33
2022-08-17T05:57:09.687Z,18.13
2022-08-17T05:59:56.875Z,18.98
2022-08-17T06:02:48.009Z,25.20
2022-08-17T06:05:26.742Z,19.98
2022-08-17T06:08:11.983Z,19.67
2022-08-17T06:10:47.803Z,19.92
2022-08-17T06:13:30.160Z,23.10
2022-08-17T06:16:28.144Z,20.40
2022-08-17T06:19:14.269Z,21.30
2022-08-17T06:21:46.593Z,23.02
2022-08-17T06:24:27.517Z,23.95
2022-08-17T06:27:01.438Z,23.02
2022-08-17T06:29:37.498Z,22.02
2022-08-17T06:32:08.455Z,19.63
2022-08-17T06:34:37.892Z,20.35
2022-08-17T06:37:32.579Z,21.35
2022-08-17T06:40:02.781Z,19.83
2022-08-17T06:43:04.089Z,18.77
2022-08-17T06:45:24.478Z,18.33
2022-08-17T06:48:09.636Z,18.80
2022-08-17T06:50:49.218Z,16.27
2022-08-17T06:53:35.088Z,16.67
2022-08-17T06:56:13.816Z,16.88
2022-08-17T06:58:44.732Z,16.70
2022-08-17T07:01:24.893Z,16.02
2022-08-17T07:03:55.430Z,15.02
2022-08-17T07:06:32.906Z,17.08
2022-08-17T07:09:21.585Z,15.20
2022-08-17T07:11:49.702Z,15.38
2022-08-17T07:14:38.187Z,13.88
2022-08-17T07:17:13.297Z,14.50
2022-08-17T07:19:45.537Z,14.93
2022-08-17T07:22:50.350Z,17.23
2022-08-17T07:25:27.650Z,14.57
2022-08-17T07:27:59.769Z,14.98
2022-08-17T07:30:44.630Z,13.07
2022-08-17T07:33:23.401Z,14.85
2022-08-17T07:35:51.261Z,15.35
2022-08-17T07:38:26.855Z,16.17
2022-08-17T07:40:57.910Z,12.70
2022-08-17T07:43:29.458Z,16.70
2022-08-17T07:46:25.798Z,16.23
2022-08-17T07:49:13.724Z,12.52
2022-08-17T07:51:44.190Z,11.65
2022-08-17T07:54:19.517Z,13.05
2022-08-17T07:56:49.865Z,13.77
2022-08-17T07:59:29.420Z,11.07
2022-08-17T08:02:02.305Z,12.17
2022-08-17T08:04:59.221Z,11.77
2022-08-17T08:07:27.328Z,10.43
2022-08-17T08:10:11.459Z,14.23
2022-08-17T08:12:47.994Z,12.65
2022-08-17T08:15:34.388Z,11.55
2022-08-17T08:18:06.225Z,15.73
2022-08-17T08:20:51.698Z,14.15
2022-08-17T08:23:39.195Z,12.85
2022-08-17T08:26:26.458Z,13.32
2022-08-17T08:29:01.714Z,14.50
2022-08-17T08:31:54.764Z,13.10
2022-08-17T08:35:01.490Z,14.77
2022-08-17T08:38:02.490Z,15.80
2022-08-17T08:40:54.533Z,15.13
2022-08-17T08:43:55.969Z,15.50
2022-08-17T08:46:29.391Z,14.73
2022-08-17T08:49:14.572Z,16.30
2022-08-17T08:52:03.558Z,16.95
2022-08-17T08:54:39.410Z,17.92
2022-08-17T08:57:24.245Z,17.95
2022-08-17T09:00:19.033Z,16.20
2022-08-17T09:03:20.092Z,18.92
2022-08-17T09:06:37.872Z,19.27
2022-08-17T09:09:01.803Z,19.98
2022-08-17T09:12:03.457Z,17.85
2022-08-17T09:15:03.742Z,12.02
2022-08-17T09:17:46.099Z,10.90
2022-08-17T09:20:40.586Z,10.68
2022-08-17T09:23:18.310Z,10.73
2022-08-17T09:26:22.819Z,11.18
2022-08-17T09:28:53.588Z,17.50
2022-08-17T09:31:31.266Z,13.77
2022-08-17T09:34:05.444Z,19.92
2022-08-17T09:36:40.597Z,16.67
2022-08-17T09:39:25.251Z,19.20
2022-08-17T09:42:00.390Z,22.67
2022-08-17T09:45:05.282Z,18.02
2022-08-17T09:47:48.023Z,15.57
2022-08-17T09:51:04.358Z,18.35
2022-08-17T09:53:15.163Z,15.10
2022-08-17T09:56:16.899Z,15.05
2022-08-17T09:59:13.184Z,15.40
2022-08-17T10:01:52.330Z,14.52
2022-08-17T10:04:29.472Z,12.70
2022-08-17T10:07:04.438Z,12.55
2022-08-17T10:09:40.751Z,21.13
2022-08-17T10:12:47.204Z,16.05
2022-08-17T10:15:37.381Z,15.35
2022-08-17T10:18:20.908Z,16.35
2022-08-17T10:21:28.488Z,16.25
2022-08-17T10:24:37.365Z,14.68
2022-08-17T10:27:10.929Z,13.25
2022-08-17T10:29:49.788Z,14.75
2022-08-17T10:32:27.462Z,13.30
2022-08-17T10:35:44.080Z,17.75
2022-08-17T10:38:29.288Z,13.88
2022-08-17T10:41:06.209Z,21.30
2022-08-17T10:44:38.860Z,13.48
2022-08-17T10:47:08.552Z,14.93
2022-08-17T10:49:47.973Z,14.38
2022-08-17T10:52:27.415Z,16.50
2022-08-17T10:54:58.440Z,17.27
2022-08-17T10:57:35.197Z,13.70
2022-08-17T11:00:15.858Z,16.27
2022-08-17T11:02:49.251Z,14.43
2022-08-17T11:05:23.939Z,15.13
2022-08-17T11:08:10.703Z,15.35
2022-08-17T11:11:05.658Z,14.48
2022-08-17T11:13:33.121Z,13.05
2022-08-17T11:16:17.217Z,13.48
2022-08-17T11:19:17.889Z,14.07
2022-08-17T11:22:14.606Z,13.57
2022-08-17T11:24:51.350Z,18.23
2022-08-17T11:27:31.724Z,15.60
2022-08-17T11:30:06.324Z,15.32
2022-08-17T11:32:47.585Z,13.07
2022-08-17T11:35:22.245Z,15.40
2022-08-17T11:37:59.014Z,15.85
2022-08-17T11:40:54.228Z,15.43
2022-08-17T11:44:05.451Z,13.32
2022-08-17T11:47:42.500Z,15.95
2022-08-17T11:50:40.600Z,14.80
2022-08-17T11:53:39.919Z,16.65
2022-08-17T11:56:11.777Z,16.60
2022-08-17T11:58:43.023Z,19.42
2022-08-17T12:01:33.231Z,17.33
2022-08-17T12:04:31.870Z,16.52
2022-08-17T12:07:20.519Z,19.15
2022-08-17T12:09:50.887Z,20.77
2022-08-17T12:12:22.707Z,17.15
2022-08-17T12:15:11.144Z,18.17
2022-08-17T12:17:42.740Z,18.60
2022-08-17T12:20:16.263Z,19.98
2022-08-17T12:23:00.944Z,19.98
2022-08-17T12:25:43.466Z,18.77
2022-08-17T12:28:33.214Z,19.95
2022-08-17T12:31:14.252Z,21.58
2022-08-17T12:33:44.644Z,21.33
2022-08-17T12:36:15.812Z,23.83
2022-08-17T12:38:57.233Z,21.73
2022-08-17T12:41:43.391Z,26.42
2022-08-17T12:44:20.968Z,21.83
2022-08-17T12:46:58.724Z,20.75
2022-08-17T12:49:29.866Z,23.70
2022-08-17T12:52:08.359Z,21.05
2022-08-17T12:54:39.638Z,25.08
2022-08-17T12:57:13.432Z,23.63
2022-08-17T12:59:44.362Z,24.67
2022-08-17T13:02:37.535Z,27.15
2022-08-17T13:05:07.433Z,26.60
2022-08-17T13:07:42.403Z,27.95
2022-08-17T13:10:18.413Z,24.55
2022-08-17T13:12:45.828Z,27.92
2022-08-17T13:15:38.142Z,25.65
2022-08-17T13:18:40.430Z,24.42
2022-08-17T13:21:27.765Z,24.75
2022-08-17T13:24:00.903Z,31.50
2022-08-17T13:26:33.758Z,25.08
2022-08-17T13:29:05.404Z,24.65
2022-08-17T13:31:47.466Z,22.17
2022-08-17T13:34:29.254Z,24.88
2022-08-17T13:37:27.110Z,25.95
2022-08-17T13:40:24.369Z,26.50
2022-08-17T13:42:54.293Z,23.35
2022-08-17T13:45:35.094Z,23.33
2022-08-17T13:48:26.793Z,23.48
2022-08-17T13:50:57.311Z,24.92
2022-08-17T13:53:27.548Z,25.48
2022-08-17T13:56:37.224Z,23.80
2022-08-17T13:59:13.100Z,22.13
2022-08-17T14:01:44.799Z,20.67
2022-08-17T14:04:16.609Z,25.40
2022-08-17T14:06:52.275Z,26.75
2022-08-17T14:09:24.306Z,26.65
2022-08-17T14:11:53.978Z,22.67
2022-08-17T14:14:23.328Z,23.35
2022-08-17T14:16:52.689Z,21.52
2022-08-17T14:19:21.945Z,21.05
2022-08-17T14:21:50.108Z,21.70
2022-08-17T14:24:44.618Z,25.05
2022-08-17T14:27:12.623Z,22.60
2022-08-17T14:29:41.242Z,24.40
2022-08-17T14:32:29.563Z,23.33
2022-08-17T14:34:58.337Z,22.13
2022-08-17T14:37:28.037Z,24.35
2022-08-17T14:39:57.765Z,21.85
2022-08-17T14:42:27.432Z,21.17
2022-08-17T14:44:56.283Z,21.15
2022-08-17T14:47:23.716Z,20.63
2022-08-17T14:49:51.228Z,20.00
2022-08-17T14:52:24.035Z,21.77
2022-08-17T14:54:52.950Z,22.27
2022-08-17T14:57:33.431Z,21.40
2022-08-17T15:00:02.549Z,21.52
2022-08-17T15:02:31.057Z,22.70
2022-08-17T15:05:00.753Z,21.75
2022-08-17T15:07:30.861Z,18.17
2022-08-17T15:10:02.364Z,21.13
2022-08-17T15:12:34.641Z,21.48
2022-08-17T15:15:05.428Z,25.33
2022-08-17T15:17:45.021Z,24.05
2022-08-17T15:20:17.723Z,21.10
2022-08-17T15:22:47.055Z,21.10
2022-08-17T15:25:14.641Z,21.15
2022-08-17T15:27:42.553Z,23.00
2022-08-17T15:30:10.999Z,21.10
2022-08-17T15:32:40.917Z,22.42
2022-08-17T15:35:15.590Z,28.17
2022-08-17T15:37:44.667Z,21.95
2022-08-17T15:40:12.867Z,26.40
2022-08-17T15:42:41.054Z,21.70
2022-08-17T15:45:14.026Z,21.33
2022-08-17T15:47:42.571Z,23.77
2022-08-17T15:50:10.865Z,22.38
2022-08-17T15:52:40.532Z,25.40
2022-08-17T15:55:12.574Z,23.05
2022-08-17T15:57:40.523Z,21.63
2022-08-17T16:00:10.191Z,23.58
2022-08-17T16:03:45.811Z,24.17
2022-08-17T16:05:31.125Z,22.48
2022-08-17T16:07:59.767Z,25.30
2022-08-17T16:10:35.447Z,27.08
2022-08-17T16:13:05.379Z,25.75
2022-08-17T16:15:44.858Z,24.08
2022-08-17T16:20:46.043Z,23.92
2022-08-17T16:23:18.525Z,22.40
2022-08-17T16:28:30.917Z,24.58
2022-08-17T16:31:07.935Z,25.65
2022-08-17T16:33:37.523Z,24.27
2022-08-17T16:36:07.236Z,22.27
2022-08-17T16:38:35.816Z,28.95
2022-08-17T16:41:05.105Z,27.02
2022-08-17T16:43:34.038Z,24.13
2022-08-17T16:46:02.002Z,21.52
2022-08-17T16:48:29.897Z,22.70
2022-08-17T16:50:58.577Z,23.33
2022-08-17T16:53:32.017Z,23.00
2022-08-17T16:55:59.361Z,24.95
2022-08-17T16:58:26.694Z,20.48
2022-08-17T17:00:54.392Z,22.10
2022-08-17T17:03:24.760Z,27.83
2022-08-17T17:06:16.614Z,23.88
2022-08-17T17:09:08.003Z,21.47
2022-08-17T17:11:47.530Z,25.58
2022-08-17T17:14:33.616Z,23.38
2022-08-17T17:17:04.909Z,25.75
2022-08-17T17:19:39.143Z,23.83
2022-08-17T17:25:01.508Z,23.77
2022-08-17T17:27:50.040Z,25.30
2022-08-17T17:30:50.653Z,28.80
2022-08-17T17:33:32.855Z,26.92
2022-08-17T17:36:07.333Z,27.65
2022-08-17T17:38:41.777Z,27.35
2022-08-17T17:41:15.377Z,23.98
2022-08-17T17:43:43.263Z,22.90
2022-08-17T17:46:30.529Z,24.00
2022-08-17T17:48:58.357Z,23.65
2022-08-17T17:52:09.076Z,22.55
2022-08-17T17:54:50.001Z,20.83
2022-08-17T17:58:10.269Z,26.63
2022-08-17T18:00:44.088Z,25.75
2022-08-17T18:03:23.448Z,25.13
2022-08-17T18:06:10.595Z,22.15
2022-08-17T18:08:47.152Z,22.25
2022-08-17T18:11:25.139Z,29.48
2022-08-17T18:14:01.594Z,23.05
2022-08-17T18:16:32.746Z,23.80
2022-08-17T18:19:00.660Z,25.55
2022-08-17T18:21:40.066Z,26.73
2022-08-17T18:24:10.409Z,26.67
2022-08-17T18:26:41.859Z,24.90
2022-08-17T18:29:31.925Z,21.30
2022-08-17T18:32:26.930Z,20.30
2022-08-17T18:35:01.626Z,17.40
2022-08-17T18:37:41.197Z,16.27
2022-08-17T18:40:25.934Z,17.70
2022-08-17T18:43:24.334Z,17.70
2022-08-17T18:46:15.569Z,16.35
2022-08-17T18:49:19.203Z,16.60
2022-08-17T18:51:46.824Z,18.48
2022-08-17T18:54:23.970Z,18.67
2022-08-17T18:56:57.838Z,20.27
2022-08-17T18:59:30.277Z,19.50
2022-08-17T19:02:10.263Z,19.80
2022-08-17T19:05:01.235Z,17.75
2022-08-17T19:07:34.814Z,17.23
2022-08-17T19:10:28.803Z,11.85
2022-08-17T19:13:11.305Z,10.67
2022-08-17T19:16:14.124Z,9.02
2022-08-17T19:19:14.444Z,7.20
2022-08-17T19:22:02.733Z,8.70
2022-08-17T19:24:33.779Z,8.73
2022-08-17T19:27:42.056Z,7.30
2022-08-17T19:30:17.634Z,15.07
2022-08-17T19:32:45.002Z,5.50
2022-08-17T19:35:17.367Z,5.82
2022-08-17T19:38:18.303Z,7.47
2022-08-17T19:40:59.646Z,7.38
2022-08-17T19:44:15.487Z,8.65
2022-08-17T19:47:01.517Z,9.13
2022-08-17T19:49:50.345Z,5.20
2022-08-17T19:52:42.709Z,7.90
2022-08-17T19:55:22.395Z,8.45
2022-08-17T19:57:59.533Z,6.70
2022-08-17T20:00:26.971Z,6.88
2022-08-17T20:03:16.161Z,9.15
2022-08-17T20:06:12.059Z,5.75
2022-08-17T20:09:14.959Z,7.32
2022-08-17T20:11:57.973Z,5.90
2022-08-17T20:14:35.824Z,8.85
2022-08-17T20:17:04.392Z,10.70
2022-08-17T20:20:19.401Z,14.98
2022-08-17T20:23:23.389Z,14.65
2022-08-17T20:26:03.435Z,17.85
2022-08-17T20:28:35.141Z,17.55
2022-08-17T20:31:25.493Z,20.30
2022-08-17T20:34:16.393Z,25.58
2022-08-17T20:37:09.139Z,26.50
2022-08-17T20:39:46.590Z,25.05
2022-08-17T20:42:20.300Z,28.02
2022-08-17T20:44:58.032Z,27.40
2022-08-17T20:47:29.114Z,27.05
2022-08-17T20:50:02.373Z,29.92
2022-08-17T20:52:36.004Z,29.48
2022-08-17T20:55:04.488Z,27.63
2022-08-17T20:57:32.052Z,26.02
2022-08-17T21:00:16.421Z,24.88
2022-08-17T21:02:46.820Z,27.20
2022-08-17T21:05:57.200Z,26.77
2022-08-17T21:08:32.182Z,26.58
2022-08-17T21:11:20.546Z,26.85
2022-08-17T21:14:17.652Z,26.50
2022-08-17T21:17:17.620Z,24.25
2022-08-17T21:20:11.367Z,21.95
2022-08-17T21:22:54.813Z,20.63
2022-08-17T21:25:49.133Z,27.50
2022-08-17T21:29:01.117Z,29.92
2022-08-17T21:31:33.190Z,25.80
2022-08-17T21:34:25.906Z,25.52
2022-08-17T21:36:53.402Z,26.15
2022-08-17T21:39:33.403Z,28.48
2022-08-17T21:42:01.361Z,32.03
2022-08-17T21:44:35.734Z,24.73
2022-08-17T21:47:32.643Z,26.25
2022-08-17T21:50:23.637Z,28.52
2022-08-17T21:52:55.964Z,27.05
2022-08-17T21:55:29.608Z,30.40
2022-08-17T21:58:14.506Z,29.70
2022-08-17T22:00:44.783Z,32.25
2022-08-17T22:03:25.833Z,31.58
2022-08-17T22:05:53.251Z,35.30
2022-08-17T22:08:23.796Z,28.67
2022-08-17T22:11:01.180Z,29.45
2022-08-17T22:13:29.624Z,26.58
2022-08-17T22:16:28.852Z,28.98
2022-08-17T22:18:59.269Z,26.52
2022-08-17T22:21:27.673Z,26.15
2022-08-17T22:24:16.273Z,29.15
2022-08-17T22:27:07.852Z,24.25
2022-08-17T22:29:58.283Z,29.67
2022-08-17T22:32:37.796Z,26.45
2022-08-17T22:35:32.786Z,22.02
2022-08-17T22:41:12.524Z,28.27
2022-08-17T22:43:43.739Z,24.23
2022-08-17T22:46:15.203Z,24.20
2022-08-17T22:48:59.749Z,28.33
2022-08-17T22:51:30.863Z,21.67
2022-08-17T22:54:20.328Z,22.60
2022-08-17T22:57:20.554Z,23.85
2022-08-17T22:59:52.006Z,25.73
2022-08-17T23:02:29.063Z,25.30
2022-08-17T23:05:15.819Z,23.25
2022-08-17T23:07:45.788Z,19.98
2022-08-17T23:10:14.205Z,21.80
2022-08-17T23:12:42.060Z,26.60
2022-08-17T23:15:16.903Z,25.38
2022-08-17T23:17:45.297Z,23.00
2022-08-17T23:20:15.409Z,21.67
2022-08-17T23:22:52.287Z,21.65
2022-08-17T23:25:29.106Z,22.73
2022-08-17T23:27:58.410Z,22.08
2022-08-17T23:30:28.535Z,24.58
2022-08-17T23:32:59.624Z,24.15
2022-08-17T23:35:39.946Z,24.10
2022-08-17T23:38:13.017Z,21.40
2022-08-17T23:40:41.115Z,21.83
2022-08-17T23:43:17.580Z,20.33
2022-08-17T23:45:54.365Z,23.83
2022-08-17T23:48:32.561Z,17.73
2022-08-17T23:51:18.986Z,15.55
2022-08-17T23:53:52.049Z,19.83
2022-08-17T23:56:25.718Z,17.20
2022-08-17T23:58:55.093Z,20.13
